sensor_id;sensor_type;location;lat;lon;timestamp;P1;durP1;ratioP1;P2;durP2;ratioP2
45650;SDS011;31365;48.858;8.530;2023-12-28T00:00:04;26.67;;;16.33;;
45650;SDS011;31365;48.858;8.530;2023-12-28T00:02:34;15.70;;;9.70;;
45650;SDS011;31365;48.858;8.530;2023-12-28T00:05:03;8.80;;;5.57;;
45650;SDS011;31365;48.858;8.530;2023-12-28T00:07:32;7.97;;;5.07;;
45650;SDS011;31365;48.858;8.530;2023-12-28T00:10:02;6.63;;;4.13;;
45650;SDS011;31365;48.858;8.530;2023-12-28T00:12:31;6.73;;;4.80;;
45650;SDS011;31365;48.858;8.530;2023-12-28T00:15:00;7.57;;;5.87;;
45650;SDS011;31365;48.858;8.530;2023-12-28T00:17:28;8.97;;;6.57;;
45650;SDS011;31365;48.858;8.530;2023-12-28T00:19:56;8.37;;;6.70;;
45650;SDS011;31365;48.858;8.530;2023-12-28T00:22:24;5.77;;;4.83;;
45650;SDS011;31365;48.858;8.530;2023-12-28T00:24:53;6.27;;;4.73;;
45650;SDS011;31365;48.858;8.530;2023-12-28T00:27:23;3.50;;;3.20;;
45650;SDS011;31365;48.858;8.530;2023-12-28T00:29:52;3.47;;;2.57;;
45650;SDS011;31365;48.858;8.530;2023-12-28T00:32:21;2.30;;;2.10;;
45650;SDS011;31365;48.858;8.530;2023-12-28T00:34:49;2.17;;;1.83;;
45650;SDS011;31365;48.858;8.530;2023-12-28T00:37:17;6.90;;;5.33;;
45650;SDS011;31365;48.858;8.530;2023-12-28T00:39:46;8.03;;;7.23;;
45650;SDS011;31365;48.858;8.530;2023-12-28T00:42:17;7.43;;;6.27;;
45650;SDS011;31365;48.858;8.530;2023-12-28T00:44:47;4.40;;;4.00;;
45650;SDS011;31365;48.858;8.530;2023-12-28T00:47:15;4.23;;;3.83;;
45650;SDS011;31365;48.858;8.530;2023-12-28T00:49:44;3.10;;;2.63;;
45650;SDS011;31365;48.858;8.530;2023-12-28T00:52:12;6.07;;;2.07;;
45650;SDS011;31365;48.858;8.530;2023-12-28T00:54:40;2.20;;;2.00;;
45650;SDS011;31365;48.858;8.530;2023-12-28T00:57:09;1.67;;;1.57;;
45650;SDS011;31365;48.858;8.530;2023-12-28T00:59:37;2.57;;;1.90;;
45650;SDS011;31365;48.858;8.530;2023-12-28T01:02:07;2.40;;;2.20;;
45650;SDS011;31365;48.858;8.530;2023-12-28T01:04:35;2.00;;;1.90;;
45650;SDS011;31365;48.858;8.530;2023-12-28T01:07:04;1.83;;;1.73;;
45650;SDS011;31365;48.858;8.530;2023-12-28T01:09:33;2.40;;;2.20;;
45650;SDS011;31365;48.858;8.530;2023-12-28T01:12:02;2.70;;;2.10;;
45650;SDS011;31365;48.858;8.530;2023-12-28T01:14:32;2.00;;;1.80;;
45650;SDS011;31365;48.858;8.530;2023-12-28T01:17:00;2.23;;;1.97;;
45650;SDS011;31365;48.858;8.530;2023-12-28T01:19:30;2.20;;;2.00;;
45650;SDS011;31365;48.858;8.530;2023-12-28T01:21:59;2.27;;;2.00;;
45650;SDS011;31365;48.858;8.530;2023-12-28T01:24:27;2.70;;;1.90;;
45650;SDS011;31365;48.858;8.530;2023-12-28T01:26:56;2.00;;;1.80;;
45650;SDS011;31365;48.858;8.530;2023-12-28T01:29:24;1.50;;;1.40;;
45650;SDS011;31365;48.858;8.530;2023-12-28T01:31:52;1.63;;;1.53;;
45650;SDS011;31365;48.858;8.530;2023-12-28T01:34:21;1.60;;;1.50;;
45650;SDS011;31365;48.858;8.530;2023-12-28T01:36:50;1.97;;;1.73;;
45650;SDS011;31365;48.858;8.530;2023-12-28T01:39:19;1.87;;;1.77;;
45650;SDS011;31365;48.858;8.530;2023-12-28T01:41:47;2.70;;;1.80;;
45650;SDS011;31365;48.858;8.530;2023-12-28T01:44:15;1.80;;;1.70;;
45650;SDS011;31365;48.858;8.530;2023-12-28T01:46:44;3.00;;;1.60;;
45650;SDS011;31365;48.858;8.530;2023-12-28T01:49:13;2.60;;;1.80;;
45650;SDS011;31365;48.858;8.530;2023-12-28T01:51:43;1.53;;;1.43;;
45650;SDS011;31365;48.858;8.530;2023-12-28T01:54:15;2.23;;;1.60;;
45650;SDS011;31365;48.858;8.530;2023-12-28T01:56:44;1.60;;;1.50;;
45650;SDS011;31365;48.858;8.530;2023-12-28T01:59:13;1.80;;;1.60;;
45650;SDS011;31365;48.858;8.530;2023-12-28T02:01:41;1.87;;;1.70;;
45650;SDS011;31365;48.858;8.530;2023-12-28T02:04:10;2.00;;;1.90;;
45650;SDS011;31365;48.858;8.530;2023-12-28T02:06:38;1.47;;;1.37;;
45650;SDS011;31365;48.858;8.530;2023-12-28T02:09:07;1.83;;;1.73;;
45650;SDS011;31365;48.858;8.530;2023-12-28T02:11:38;2.60;;;1.90;;
45650;SDS011;31365;48.858;8.530;2023-12-28T02:14:06;1.93;;;1.83;;
45650;SDS011;31365;48.858;8.530;2023-12-28T02:16:36;1.73;;;1.63;;
45650;SDS011;31365;48.858;8.530;2023-12-28T02:19:17;1.50;;;1.40;;
45650;SDS011;31365;48.858;8.530;2023-12-28T02:21:59;1.70;;;1.60;;
45650;SDS011;31365;48.858;8.530;2023-12-28T02:24:30;1.67;;;1.57;;
45650;SDS011;31365;48.858;8.530;2023-12-28T02:27:00;2.00;;;1.90;;
45650;SDS011;31365;48.858;8.530;2023-12-28T02:29:30;2.67;;;1.80;;
45650;SDS011;31365;48.858;8.530;2023-12-28T02:32:00;1.97;;;1.80;;
45650;SDS011;31365;48.858;8.530;2023-12-28T02:34:37;1.80;;;1.70;;
45650;SDS011;31365;48.858;8.530;2023-12-28T02:37:11;2.10;;;1.70;;
45650;SDS011;31365;48.858;8.530;2023-12-28T02:39:45;1.97;;;1.77;;
45650;SDS011;31365;48.858;8.530;2023-12-28T02:42:18;2.10;;;1.90;;
45650;SDS011;31365;48.858;8.530;2023-12-28T02:44:47;2.17;;;1.97;;
45650;SDS011;31365;48.858;8.530;2023-12-28T02:47:15;2.60;;;1.83;;
45650;SDS011;31365;48.858;8.530;2023-12-28T02:49:43;1.90;;;1.80;;
45650;SDS011;31365;48.858;8.530;2023-12-28T02:52:11;1.90;;;1.80;;
45650;SDS011;31365;48.858;8.530;2023-12-28T02:54:40;2.00;;;1.90;;
45650;SDS011;31365;48.858;8.530;2023-12-28T02:57:08;2.87;;;1.90;;
45650;SDS011;31365;48.858;8.530;2023-12-28T02:59:38;2.40;;;1.67;;
45650;SDS011;31365;48.858;8.530;2023-12-28T03:02:07;1.83;;;1.63;;
45650;SDS011;31365;48.858;8.530;2023-12-28T03:04:35;2.57;;;1.83;;
45650;SDS011;31365;48.858;8.530;2023-12-28T03:07:04;2.10;;;1.90;;
45650;SDS011;31365;48.858;8.530;2023-12-28T03:09:33;3.23;;;2.73;;
45650;SDS011;31365;48.858;8.530;2023-12-28T03:12:05;2.33;;;2.13;;
45650;SDS011;31365;48.858;8.530;2023-12-28T03:14:34;2.37;;;2.17;;
45650;SDS011;31365;48.858;8.530;2023-12-28T03:17:05;2.50;;;1.97;;
45650;SDS011;31365;48.858;8.530;2023-12-28T03:19:33;1.93;;;1.83;;
45650;SDS011;31365;48.858;8.530;2023-12-28T03:22:04;2.07;;;1.73;;
45650;SDS011;31365;48.858;8.530;2023-12-28T03:24:32;2.07;;;1.90;;
45650;SDS011;31365;48.858;8.530;2023-12-28T03:27:01;2.00;;;1.90;;
45650;SDS011;31365;48.858;8.530;2023-12-28T03:29:30;1.77;;;1.67;;
45650;SDS011;31365;48.858;8.530;2023-12-28T03:32:00;4.20;;;2.17;;
45650;SDS011;31365;48.858;8.530;2023-12-28T03:34:30;2.10;;;1.90;;
45650;SDS011;31365;48.858;8.530;2023-12-28T03:36:59;1.83;;;1.73;;
45650;SDS011;31365;48.858;8.530;2023-12-28T03:39:28;2.10;;;2.00;;
45650;SDS011;31365;48.858;8.530;2023-12-28T03:41:57;2.00;;;1.90;;
45650;SDS011;31365;48.858;8.530;2023-12-28T03:44:25;2.10;;;1.90;;
45650;SDS011;31365;48.858;8.530;2023-12-28T03:46:54;2.40;;;1.90;;
45650;SDS011;31365;48.858;8.530;2023-12-28T03:49:22;2.20;;;2.00;;
45650;SDS011;31365;48.858;8.530;2023-12-28T03:51:52;2.10;;;2.00;;
45650;SDS011;31365;48.858;8.530;2023-12-28T03:54:20;2.27;;;2.07;;
45650;SDS011;31365;48.858;8.530;2023-12-28T03:56:48;2.30;;;1.70;;
45650;SDS011;31365;48.858;8.530;2023-12-28T03:59:16;2.27;;;2.10;;
45650;SDS011;31365;48.858;8.530;2023-12-28T04:01:45;1.80;;;1.70;;
45650;SDS011;31365;48.858;8.530;2023-12-28T04:04:13;1.80;;;1.70;;
45650;SDS011;31365;48.858;8.530;2023-12-28T04:06:42;1.97;;;1.87;;
45650;SDS011;31365;48.858;8.530;2023-12-28T04:09:12;2.03;;;1.87;;
45650;SDS011;31365;48.858;8.530;2023-12-28T04:11:41;1.83;;;1.73;;
45650;SDS011;31365;48.858;8.530;2023-12-28T04:14:10;3.30;;;2.00;;
45650;SDS011;31365;48.858;8.530;2023-12-28T04:16:39;2.93;;;1.87;;
45650;SDS011;31365;48.858;8.530;2023-12-28T04:19:08;2.10;;;2.00;;
45650;SDS011;31365;48.858;8.530;2023-12-28T04:21:36;1.80;;;1.70;;
45650;SDS011;31365;48.858;8.530;2023-12-28T04:24:05;3.00;;;1.80;;
45650;SDS011;31365;48.858;8.530;2023-12-28T04:26:35;2.23;;;2.03;;
45650;SDS011;31365;48.858;8.530;2023-12-28T04:29:04;3.70;;;2.30;;
45650;SDS011;31365;48.858;8.530;2023-12-28T04:31:33;2.67;;;2.30;;
45650;SDS011;31365;48.858;8.530;2023-12-28T04:34:09;2.47;;;2.20;;
45650;SDS011;31365;48.858;8.530;2023-12-28T04:36:41;2.90;;;2.13;;
45650;SDS011;31365;48.858;8.530;2023-12-28T04:39:10;2.00;;;1.90;;
45650;SDS011;31365;48.858;8.530;2023-12-28T04:41:41;2.20;;;2.00;;
45650;SDS011;31365;48.858;8.530;2023-12-28T04:44:09;1.90;;;1.80;;
45650;SDS011;31365;48.858;8.530;2023-12-28T04:46:37;2.00;;;1.90;;
45650;SDS011;31365;48.858;8.530;2023-12-28T04:49:08;2.50;;;1.80;;
45650;SDS011;31365;48.858;8.530;2023-12-28T04:51:41;2.20;;;1.93;;
45650;SDS011;31365;48.858;8.530;2023-12-28T04:54:10;2.00;;;1.90;;
45650;SDS011;31365;48.858;8.530;2023-12-28T04:56:41;2.50;;;2.10;;
45650;SDS011;31365;48.858;8.530;2023-12-28T04:59:09;3.00;;;1.90;;
45650;SDS011;31365;48.858;8.530;2023-12-28T05:01:40;1.90;;;1.80;;
45650;SDS011;31365;48.858;8.530;2023-12-28T05:04:09;3.50;;;1.80;;
45650;SDS011;31365;48.858;8.530;2023-12-28T05:06:43;2.27;;;2.07;;
45650;SDS011;31365;48.858;8.530;2023-12-28T05:09:12;2.50;;;1.90;;
45650;SDS011;31365;48.858;8.530;2023-12-28T05:11:42;2.43;;;2.20;;
45650;SDS011;31365;48.858;8.530;2023-12-28T05:14:11;2.67;;;2.20;;
45650;SDS011;31365;48.858;8.530;2023-12-28T05:16:39;2.03;;;1.73;;
45650;SDS011;31365;48.858;8.530;2023-12-28T05:19:08;1.67;;;1.57;;
45650;SDS011;31365;48.858;8.530;2023-12-28T05:21:36;2.13;;;2.00;;
45650;SDS011;31365;48.858;8.530;2023-12-28T05:24:05;2.07;;;1.87;;
45650;SDS011;31365;48.858;8.530;2023-12-28T05:26:33;2.50;;;2.20;;
45650;SDS011;31365;48.858;8.530;2023-12-28T05:29:04;3.33;;;2.27;;
45650;SDS011;31365;48.858;8.530;2023-12-28T05:31:33;2.37;;;2.17;;
45650;SDS011;31365;48.858;8.530;2023-12-28T05:34:01;5.53;;;3.20;;
45650;SDS011;31365;48.858;8.530;2023-12-28T05:36:31;4.10;;;3.30;;
45650;SDS011;31365;48.858;8.530;2023-12-28T05:39:00;4.80;;;3.40;;
45650;SDS011;31365;48.858;8.530;2023-12-28T05:41:28;2.83;;;2.47;;
45650;SDS011;31365;48.858;8.530;2023-12-28T05:43:57;3.43;;;2.93;;
45650;SDS011;31365;48.858;8.530;2023-12-28T05:46:27;3.13;;;2.60;;
45650;SDS011;31365;48.858;8.530;2023-12-28T05:48:55;2.07;;;1.87;;
45650;SDS011;31365;48.858;8.530;2023-12-28T05:51:24;2.70;;;1.73;;
45650;SDS011;31365;48.858;8.530;2023-12-28T05:53:52;1.87;;;1.73;;
45650;SDS011;31365;48.858;8.530;2023-12-28T05:56:21;2.03;;;1.70;;
45650;SDS011;31365;48.858;8.530;2023-12-28T05:58:49;2.17;;;1.83;;
45650;SDS011;31365;48.858;8.530;2023-12-28T06:01:17;2.10;;;1.60;;
45650;SDS011;31365;48.858;8.530;2023-12-28T06:03:47;1.80;;;1.70;;
45650;SDS011;31365;48.858;8.530;2023-12-28T06:06:16;1.80;;;1.70;;
45650;SDS011;31365;48.858;8.530;2023-12-28T06:08:44;2.77;;;2.00;;
45650;SDS011;31365;48.858;8.530;2023-12-28T06:11:12;1.97;;;1.70;;
45650;SDS011;31365;48.858;8.530;2023-12-28T06:13:41;2.17;;;1.80;;
45650;SDS011;31365;48.858;8.530;2023-12-28T06:16:09;3.37;;;1.60;;
45650;SDS011;31365;48.858;8.530;2023-12-28T06:18:38;2.80;;;2.53;;
45650;SDS011;31365;48.858;8.530;2023-12-28T06:21:08;2.07;;;1.80;;
45650;SDS011;31365;48.858;8.530;2023-12-28T06:23:37;1.60;;;1.50;;
45650;SDS011;31365;48.858;8.530;2023-12-28T06:26:05;1.83;;;1.70;;
45650;SDS011;31365;48.858;8.530;2023-12-28T06:28:34;2.07;;;1.83;;
45650;SDS011;31365;48.858;8.530;2023-12-28T06:31:02;2.07;;;1.87;;
45650;SDS011;31365;48.858;8.530;2023-12-28T06:33:31;3.17;;;2.00;;
45650;SDS011;31365;48.858;8.530;2023-12-28T06:36:04;1.90;;;1.77;;
45650;SDS011;31365;48.858;8.530;2023-12-28T06:38:35;2.23;;;2.03;;
45650;SDS011;31365;48.858;8.530;2023-12-28T06:41:09;2.00;;;1.80;;
45650;SDS011;31365;48.858;8.530;2023-12-28T06:43:38;2.40;;;2.20;;
45650;SDS011;31365;48.858;8.530;2023-12-28T06:46:07;3.57;;;2.37;;
45650;SDS011;31365;48.858;8.530;2023-12-28T06:48:35;2.37;;;2.17;;
45650;SDS011;31365;48.858;8.530;2023-12-28T06:51:06;1.93;;;1.73;;
45650;SDS011;31365;48.858;8.530;2023-12-28T06:53:36;2.30;;;2.00;;
45650;SDS011;31365;48.858;8.530;2023-12-28T06:56:04;2.73;;;2.00;;
45650;SDS011;31365;48.858;8.530;2023-12-28T06:58:34;5.10;;;4.27;;
45650;SDS011;31365;48.858;8.530;2023-12-28T07:01:02;2.57;;;1.90;;
45650;SDS011;31365;48.858;8.530;2023-12-28T07:03:31;4.00;;;2.00;;
45650;SDS011;31365;48.858;8.530;2023-12-28T07:06:00;4.97;;;1.80;;
45650;SDS011;31365;48.858;8.530;2023-12-28T07:08:29;3.97;;;3.67;;
45650;SDS011;31365;48.858;8.530;2023-12-28T07:11:03;3.90;;;3.50;;
45650;SDS011;31365;48.858;8.530;2023-12-28T07:13:32;7.47;;;6.77;;
45650;SDS011;31365;48.858;8.530;2023-12-28T07:16:00;8.40;;;7.50;;
45650;SDS011;31365;48.858;8.530;2023-12-28T07:18:29;5.33;;;4.83;;
45650;SDS011;31365;48.858;8.530;2023-12-28T07:20:58;7.37;;;6.67;;
45650;SDS011;31365;48.858;8.530;2023-12-28T07:23:27;3.93;;;3.53;;
45650;SDS011;31365;48.858;8.530;2023-12-28T07:25:55;5.07;;;4.20;;
45650;SDS011;31365;48.858;8.530;2023-12-28T07:28:26;4.03;;;2.80;;
45650;SDS011;31365;48.858;8.530;2023-12-28T07:30:55;3.03;;;2.73;;
45650;SDS011;31365;48.858;8.530;2023-12-28T07:33:23;4.10;;;3.70;;
45650;SDS011;31365;48.858;8.530;2023-12-28T07:35:51;3.63;;;3.33;;
45650;SDS011;31365;48.858;8.530;2023-12-28T07:38:19;3.50;;;3.20;;
45650;SDS011;31365;48.858;8.530;2023-12-28T07:40:47;4.27;;;2.70;;
45650;SDS011;31365;48.858;8.530;2023-12-28T07:43:15;3.13;;;2.73;;
45650;SDS011;31365;48.858;8.530;2023-12-28T07:45:45;3.57;;;2.90;;
45650;SDS011;31365;48.858;8.530;2023-12-28T07:48:14;3.00;;;2.30;;
45650;SDS011;31365;48.858;8.530;2023-12-28T07:50:42;2.73;;;2.53;;
45650;SDS011;31365;48.858;8.530;2023-12-28T07:53:10;2.30;;;2.10;;
45650;SDS011;31365;48.858;8.530;2023-12-28T07:55:39;2.57;;;2.13;;
45650;SDS011;31365;48.858;8.530;2023-12-28T07:58:07;2.30;;;2.10;;
45650;SDS011;31365;48.858;8.530;2023-12-28T08:00:35;4.80;;;2.37;;
45650;SDS011;31365;48.858;8.530;2023-12-28T08:03:06;2.63;;;2.33;;
45650;SDS011;31365;48.858;8.530;2023-12-28T08:05:34;3.93;;;2.40;;
45650;SDS011;31365;48.858;8.530;2023-12-28T08:08:03;3.23;;;2.30;;
45650;SDS011;31365;48.858;8.530;2023-12-28T08:10:32;7.03;;;6.43;;
45650;SDS011;31365;48.858;8.530;2023-12-28T08:13:01;4.33;;;3.93;;
45650;SDS011;31365;48.858;8.530;2023-12-28T08:15:30;6.53;;;3.60;;
45650;SDS011;31365;48.858;8.530;2023-12-28T08:17:58;3.53;;;3.10;;
45650;SDS011;31365;48.858;8.530;2023-12-28T08:20:29;3.17;;;2.80;;
45650;SDS011;31365;48.858;8.530;2023-12-28T08:22:57;5.77;;;3.87;;
45650;SDS011;31365;48.858;8.530;2023-12-28T08:25:43;4.03;;;3.63;;
45650;SDS011;31365;48.858;8.530;2023-12-28T08:28:11;4.10;;;3.30;;
45650;SDS011;31365;48.858;8.530;2023-12-28T08:30:39;4.90;;;3.30;;
45650;SDS011;31365;48.858;8.530;2023-12-28T08:33:07;3.60;;;3.30;;
45650;SDS011;31365;48.858;8.530;2023-12-28T08:35:38;7.03;;;5.13;;
45650;SDS011;31365;48.858;8.530;2023-12-28T08:38:06;3.77;;;3.47;;
45650;SDS011;31365;48.858;8.530;2023-12-28T08:40:35;3.67;;;3.30;;
45650;SDS011;31365;48.858;8.530;2023-12-28T08:43:04;10.83;;;7.80;;
45650;SDS011;31365;48.858;8.530;2023-12-28T08:45:32;5.87;;;5.27;;
45650;SDS011;31365;48.858;8.530;2023-12-28T08:48:01;5.17;;;3.80;;
45650;SDS011;31365;48.858;8.530;2023-12-28T08:50:30;3.37;;;3.07;;
45650;SDS011;31365;48.858;8.530;2023-12-28T08:53:00;4.50;;;4.10;;
45650;SDS011;31365;48.858;8.530;2023-12-28T08:55:28;4.47;;;4.07;;
45650;SDS011;31365;48.858;8.530;2023-12-28T08:57:56;3.63;;;3.33;;
45650;SDS011;31365;48.858;8.530;2023-12-28T09:00:25;4.23;;;3.67;;
45650;SDS011;31365;48.858;8.530;2023-12-28T09:02:54;3.73;;;3.20;;
45650;SDS011;31365;48.858;8.530;2023-12-28T09:05:22;4.30;;;3.90;;
45650;SDS011;31365;48.858;8.530;2023-12-28T09:07:50;4.60;;;4.20;;
45650;SDS011;31365;48.858;8.530;2023-12-28T09:10:20;7.43;;;3.70;;
45650;SDS011;31365;48.858;8.530;2023-12-28T09:12:48;8.40;;;6.07;;
45650;SDS011;31365;48.858;8.530;2023-12-28T09:15:16;11.47;;;9.20;;
45650;SDS011;31365;48.858;8.530;2023-12-28T09:17:45;8.97;;;8.07;;
45650;SDS011;31365;48.858;8.530;2023-12-28T09:20:13;4.57;;;4.13;;
45650;SDS011;31365;48.858;8.530;2023-12-28T09:22:41;3.30;;;3.03;;
45650;SDS011;31365;48.858;8.530;2023-12-28T09:25:09;3.00;;;2.80;;
45650;SDS011;31365;48.858;8.530;2023-12-28T09:27:39;3.10;;;2.80;;
45650;SDS011;31365;48.858;8.530;2023-12-28T09:30:08;2.40;;;2.20;;
45650;SDS011;31365;48.858;8.530;2023-12-28T09:32:37;2.80;;;2.50;;
45650;SDS011;31365;48.858;8.530;2023-12-28T09:35:05;2.73;;;2.43;;
45650;SDS011;31365;48.858;8.530;2023-12-28T09:37:34;7.63;;;4.13;;
45650;SDS011;31365;48.858;8.530;2023-12-28T09:40:03;8.53;;;7.83;;
45650;SDS011;31365;48.858;8.530;2023-12-28T09:42:36;4.60;;;3.63;;
45650;SDS011;31365;48.858;8.530;2023-12-28T09:45:17;8.17;;;7.33;;
45650;SDS011;31365;48.858;8.530;2023-12-28T09:47:47;5.50;;;5.00;;
45650;SDS011;31365;48.858;8.530;2023-12-28T09:50:17;4.87;;;3.80;;
45650;SDS011;31365;48.858;8.530;2023-12-28T09:52:46;3.50;;;3.20;;
45650;SDS011;31365;48.858;8.530;2023-12-28T09:55:14;4.43;;;3.60;;
45650;SDS011;31365;48.858;8.530;2023-12-28T09:57:45;4.23;;;3.30;;
45650;SDS011;31365;48.858;8.530;2023-12-28T10:00:14;4.77;;;3.83;;
45650;SDS011;31365;48.858;8.530;2023-12-28T10:02:43;6.43;;;4.47;;
45650;SDS011;31365;48.858;8.530;2023-12-28T10:05:12;5.03;;;4.33;;
45650;SDS011;31365;48.858;8.530;2023-12-28T10:07:41;4.27;;;3.23;;
45650;SDS011;31365;48.858;8.530;2023-12-28T10:10:15;3.93;;;3.63;;
45650;SDS011;31365;48.858;8.530;2023-12-28T10:12:45;3.93;;;3.63;;
45650;SDS011;31365;48.858;8.530;2023-12-28T10:15:14;7.23;;;6.20;;
45650;SDS011;31365;48.858;8.530;2023-12-28T10:17:42;3.43;;;3.00;;
45650;SDS011;31365;48.858;8.530;2023-12-28T10:20:11;5.57;;;5.07;;
45650;SDS011;31365;48.858;8.530;2023-12-28T10:22:39;6.80;;;5.73;;
45650;SDS011;31365;48.858;8.530;2023-12-28T10:25:07;3.77;;;3.47;;
45650;SDS011;31365;48.858;8.530;2023-12-28T10:27:38;4.83;;;4.33;;
45650;SDS011;31365;48.858;8.530;2023-12-28T10:30:10;5.40;;;4.90;;
45650;SDS011;31365;48.858;8.530;2023-12-28T10:32:40;6.07;;;5.47;;
45650;SDS011;31365;48.858;8.530;2023-12-28T10:35:09;5.67;;;4.60;;
45650;SDS011;31365;48.858;8.530;2023-12-28T10:37:39;4.87;;;3.77;;
45650;SDS011;31365;48.858;8.530;2023-12-28T10:40:12;4.57;;;4.17;;
45650;SDS011;31365;48.858;8.530;2023-12-28T10:42:45;5.50;;;5.10;;
45650;SDS011;31365;48.858;8.530;2023-12-28T10:45:21;3.57;;;3.27;;
45650;SDS011;31365;48.858;8.530;2023-12-28T10:47:56;2.83;;;2.63;;
45650;SDS011;31365;48.858;8.530;2023-12-28T10:50:37;2.83;;;2.63;;
45650;SDS011;31365;48.858;8.530;2023-12-28T10:53:17;3.53;;;2.93;;
45650;SDS011;31365;48.858;8.530;2023-12-28T10:56:00;3.03;;;2.83;;
45650;SDS011;31365;48.858;8.530;2023-12-28T10:58:48;2.53;;;2.37;;
45650;SDS011;31365;48.858;8.530;2023-12-28T11:01:22;3.93;;;3.53;;
45650;SDS011;31365;48.858;8.530;2023-12-28T11:04:02;3.30;;;3.10;;
45650;SDS011;31365;48.858;8.530;2023-12-28T11:06:37;2.43;;;2.23;;
45650;SDS011;31365;48.858;8.530;2023-12-28T11:09:08;2.90;;;2.67;;
45650;SDS011;31365;48.858;8.530;2023-12-28T11:11:39;3.03;;;2.50;;
45650;SDS011;31365;48.858;8.530;2023-12-28T11:14:09;3.77;;;2.90;;
45650;SDS011;31365;48.858;8.530;2023-12-28T11:16:39;3.63;;;3.13;;
45650;SDS011;31365;48.858;8.530;2023-12-28T11:19:09;3.73;;;2.73;;
45650;SDS011;31365;48.858;8.530;2023-12-28T11:21:39;3.43;;;3.13;;
45650;SDS011;31365;48.858;8.530;2023-12-28T11:24:09;3.23;;;2.93;;
45650;SDS011;31365;48.858;8.530;2023-12-28T11:26:39;2.63;;;2.43;;
45650;SDS011;31365;48.858;8.530;2023-12-28T11:29:07;4.07;;;2.93;;
45650;SDS011;31365;48.858;8.530;2023-12-28T11:31:36;4.33;;;3.93;;
45650;SDS011;31365;48.858;8.530;2023-12-28T11:34:06;4.63;;;4.23;;
45650;SDS011;31365;48.858;8.530;2023-12-28T11:36:49;4.90;;;4.10;;
45650;SDS011;31365;48.858;8.530;2023-12-28T11:39:26;3.03;;;2.83;;
45650;SDS011;31365;48.858;8.530;2023-12-28T11:42:00;4.60;;;3.20;;
45650;SDS011;31365;48.858;8.530;2023-12-28T11:44:31;3.50;;;3.20;;
45650;SDS011;31365;48.858;8.530;2023-12-28T11:47:11;33.87;;;19.63;;
45650;SDS011;31365;48.858;8.530;2023-12-28T11:49:42;34.07;;;18.47;;
45650;SDS011;31365;48.858;8.530;2023-12-28T11:52:21;18.23;;;11.17;;
45650;SDS011;31365;48.858;8.530;2023-12-28T11:54:51;3.07;;;2.87;;
45650;SDS011;31365;48.858;8.530;2023-12-28T11:57:20;3.00;;;2.80;;
45650;SDS011;31365;48.858;8.530;2023-12-28T11:59:52;2.90;;;2.70;;
45650;SDS011;31365;48.858;8.530;2023-12-28T12:02:22;2.90;;;2.70;;
45650;SDS011;31365;48.858;8.530;2023-12-28T12:04:53;2.53;;;2.33;;
45650;SDS011;31365;48.858;8.530;2023-12-28T12:07:23;2.37;;;2.27;;
45650;SDS011;31365;48.858;8.530;2023-12-28T12:09:55;4.20;;;3.30;;
45650;SDS011;31365;48.858;8.530;2023-12-28T12:12:24;3.40;;;3.10;;
45650;SDS011;31365;48.858;8.530;2023-12-28T12:14:54;2.90;;;2.70;;
45650;SDS011;31365;48.858;8.530;2023-12-28T12:17:23;2.77;;;2.57;;
45650;SDS011;31365;48.858;8.530;2023-12-28T12:19:54;2.30;;;2.10;;
45650;SDS011;31365;48.858;8.530;2023-12-28T12:22:24;2.43;;;2.30;;
45650;SDS011;31365;48.858;8.530;2023-12-28T12:24:55;3.67;;;3.40;;
45650;SDS011;31365;48.858;8.530;2023-12-28T12:27:28;4.20;;;3.90;;
45650;SDS011;31365;48.858;8.530;2023-12-28T12:29:57;2.70;;;2.50;;
45650;SDS011;31365;48.858;8.530;2023-12-28T12:32:25;3.27;;;3.03;;
45650;SDS011;31365;48.858;8.530;2023-12-28T12:34:55;3.70;;;3.40;;
45650;SDS011;31365;48.858;8.530;2023-12-28T12:37:24;5.10;;;4.70;;
45650;SDS011;31365;48.858;8.530;2023-12-28T12:39:53;3.73;;;3.03;;
45650;SDS011;31365;48.858;8.530;2023-12-28T12:42:22;3.57;;;2.93;;
45650;SDS011;31365;48.858;8.530;2023-12-28T12:44:50;4.17;;;3.40;;
45650;SDS011;31365;48.858;8.530;2023-12-28T12:47:19;2.57;;;2.37;;
45650;SDS011;31365;48.858;8.530;2023-12-28T12:49:48;2.83;;;2.60;;
45650;SDS011;31365;48.858;8.530;2023-12-28T12:52:20;2.60;;;2.40;;
45650;SDS011;31365;48.858;8.530;2023-12-28T12:54:52;2.77;;;2.40;;
45650;SDS011;31365;48.858;8.530;2023-12-28T12:57:22;3.37;;;3.17;;
45650;SDS011;31365;48.858;8.530;2023-12-28T12:59:52;2.47;;;2.27;;
45650;SDS011;31365;48.858;8.530;2023-12-28T13:02:22;3.53;;;3.17;;
45650;SDS011;31365;48.858;8.530;2023-12-28T13:04:51;4.53;;;4.03;;
45650;SDS011;31365;48.858;8.530;2023-12-28T13:07:21;3.60;;;2.80;;
45650;SDS011;31365;48.858;8.530;2023-12-28T13:09:50;4.40;;;3.13;;
45650;SDS011;31365;48.858;8.530;2023-12-28T13:12:18;4.50;;;4.10;;
45650;SDS011;31365;48.858;8.530;2023-12-28T13:14:46;5.60;;;3.97;;
45650;SDS011;31365;48.858;8.530;2023-12-28T13:17:14;5.07;;;4.20;;
45650;SDS011;31365;48.858;8.530;2023-12-28T13:19:43;4.07;;;3.77;;
45650;SDS011;31365;48.858;8.530;2023-12-28T13:22:11;3.80;;;3.50;;
45650;SDS011;31365;48.858;8.530;2023-12-28T13:24:41;2.87;;;2.67;;
45650;SDS011;31365;48.858;8.530;2023-12-28T13:27:09;5.63;;;5.03;;
45650;SDS011;31365;48.858;8.530;2023-12-28T13:29:37;5.00;;;3.80;;
45650;SDS011;31365;48.858;8.530;2023-12-28T13:32:06;2.70;;;2.43;;
45650;SDS011;31365;48.858;8.530;2023-12-28T13:34:34;2.60;;;2.40;;
45650;SDS011;31365;48.858;8.530;2023-12-28T13:37:03;3.17;;;2.87;;
45650;SDS011;31365;48.858;8.530;2023-12-28T13:39:31;2.73;;;2.53;;
45650;SDS011;31365;48.858;8.530;2023-12-28T13:42:06;4.57;;;2.63;;
45650;SDS011;31365;48.858;8.530;2023-12-28T13:44:35;3.00;;;2.70;;
45650;SDS011;31365;48.858;8.530;2023-12-28T13:47:04;3.53;;;3.23;;
45650;SDS011;31365;48.858;8.530;2023-12-28T13:49:34;2.70;;;2.50;;
45650;SDS011;31365;48.858;8.530;2023-12-28T13:52:03;4.37;;;2.67;;
45650;SDS011;31365;48.858;8.530;2023-12-28T13:54:32;4.50;;;4.10;;
45650;SDS011;31365;48.858;8.530;2023-12-28T13:57:01;3.67;;;3.37;;
45650;SDS011;31365;48.858;8.530;2023-12-28T13:59:30;4.37;;;3.27;;
45650;SDS011;31365;48.858;8.530;2023-12-28T14:01:58;3.00;;;2.80;;
45650;SDS011;31365;48.858;8.530;2023-12-28T14:04:27;3.33;;;3.03;;
45650;SDS011;31365;48.858;8.530;2023-12-28T14:06:55;4.20;;;3.00;;
45650;SDS011;31365;48.858;8.530;2023-12-28T14:09:24;5.53;;;4.30;;
45650;SDS011;31365;48.858;8.530;2023-12-28T14:11:52;5.33;;;4.83;;
45650;SDS011;31365;48.858;8.530;2023-12-28T14:14:21;6.00;;;5.33;;
45650;SDS011;31365;48.858;8.530;2023-12-28T14:16:51;7.63;;;6.73;;
45650;SDS011;31365;48.858;8.530;2023-12-28T14:19:19;3.20;;;2.87;;
45650;SDS011;31365;48.858;8.530;2023-12-28T14:21:48;4.00;;;3.70;;
45650;SDS011;31365;48.858;8.530;2023-12-28T14:24:17;5.27;;;4.40;;
45650;SDS011;31365;48.858;8.530;2023-12-28T14:26:46;5.53;;;4.13;;
45650;SDS011;31365;48.858;8.530;2023-12-28T14:29:18;10.77;;;7.20;;
45650;SDS011;31365;48.858;8.530;2023-12-28T14:31:47;18.70;;;12.53;;
45650;SDS011;31365;48.858;8.530;2023-12-28T14:34:18;6.47;;;5.83;;
45650;SDS011;31365;48.858;8.530;2023-12-28T14:36:47;2.90;;;2.70;;
45650;SDS011;31365;48.858;8.530;2023-12-28T14:39:20;3.90;;;3.60;;
45650;SDS011;31365;48.858;8.530;2023-12-28T14:41:48;3.60;;;3.30;;
45650;SDS011;31365;48.858;8.530;2023-12-28T14:44:16;3.07;;;2.77;;
45650;SDS011;31365;48.858;8.530;2023-12-28T14:46:45;3.50;;;3.20;;
45650;SDS011;31365;48.858;8.530;2023-12-28T14:49:13;3.37;;;3.13;;
45650;SDS011;31365;48.858;8.530;2023-12-28T14:51:43;4.70;;;3.93;;
45650;SDS011;31365;48.858;8.530;2023-12-28T14:54:11;4.93;;;4.53;;
45650;SDS011;31365;48.858;8.530;2023-12-28T14:56:40;5.27;;;4.77;;
45650;SDS011;31365;48.858;8.530;2023-12-28T14:59:19;4.13;;;3.70;;
45650;SDS011;31365;48.858;8.530;2023-12-28T15:01:48;4.83;;;4.47;;